createdAt,value
2022-11-05T00:00:26.215Z,87.05
2022-11-05T00:03:13.171Z,87.18
2022-11-05T00:05:41.235Z,87.23
2022-11-05T00:08:08.796Z,87.73
2022-11-05T00:10:37.756Z,87.74
2022-11-05T00:13:08.308Z,87.77
2022-11-05T00:15:35.793Z,87.31
2022-11-05T00:18:03.811Z,87.65
2022-11-05T00:20:33.106Z,87.59
2022-11-05T00:23:01.470Z,86.79
2022-11-05T00:25:29.505Z,87.07
2022-11-05T00:28:01.046Z,87.28
2022-11-05T00:30:29.625Z,87.56
2022-11-05T00:33:01.701Z,87.87
2022-11-05T00:35:29.764Z,87.72
2022-11-05T00:37:58.601Z,87.95
2022-11-05T00:40:26.290Z,87.87
2022-11-05T00:42:53.966Z,87.93
2022-11-05T00:45:21.890Z,88.07
2022-11-05T00:47:49.933Z,88.16
2022-11-05T00:50:17.992Z,87.69
2022-11-05T00:52:49.212Z,88.06
2022-11-05T00:55:18.255Z,88.08
2022-11-05T00:57:46.001Z,87.43
2022-11-05T01:00:15.137Z,88.05
2022-11-05T01:02:42.587Z,88.12
2022-11-05T01:05:10.522Z,87.58
2022-11-05T01:07:37.694Z,87.74
2022-11-05T01:10:06.601Z,87.05
2022-11-05T01:12:35.735Z,86.97
2022-11-05T01:15:03.767Z,87.28
2022-11-05T01:17:31.076Z,87.07
2022-11-05T01:19:58.661Z,86.94
2022-11-05T01:22:26.084Z,87.28
2022-11-05T01:24:54.287Z,87.37
2022-11-05T01:27:21.878Z,87.46
2022-11-05T01:29:51.031Z,87.22
2022-11-05T01:32:18.329Z,87.51
2022-11-05T01:34:46.179Z,87.66
2022-11-05T01:37:13.447Z,87.94
2022-11-05T01:39:41.056Z,87.51
2022-11-05T01:42:15.326Z,86.99
2022-11-05T01:44:54.080Z,86.70
2022-11-05T01:47:29.283Z,86.48
2022-11-05T01:50:01.141Z,86.86
2022-11-05T01:52:30.030Z,86.53
2022-11-05T01:55:00.414Z,86.44
2022-11-05T01:57:28.838Z,86.57
2022-11-05T02:00:00.156Z,86.21
2022-11-05T02:02:28.196Z,85.86
2022-11-05T02:05:00.669Z,85.71
2022-11-05T02:07:28.955Z,86.26
2022-11-05T02:10:01.362Z,86.49
2022-11-05T02:12:29.916Z,86.64
2022-11-05T02:14:59.500Z,86.58
2022-11-05T02:17:45.224Z,87.08
2022-11-05T02:20:25.033Z,87.02
2022-11-05T02:23:14.336Z,87.40
2022-11-05T02:26:18.592Z,87.15
2022-11-05T02:29:18.949Z,87.21
2022-11-05T02:31:56.032Z,86.99
2022-11-05T02:34:29.062Z,87.06
2022-11-05T02:37:02.758Z,87.19
2022-11-05T02:39:41.675Z,86.72
2022-11-05T02:42:20.438Z,87.49
2022-11-05T02:44:53.114Z,86.80
2022-11-05T02:47:27.082Z,86.80
2022-11-05T02:50:03.250Z,86.59
2022-11-05T02:52:38.272Z,86.86
2022-11-05T02:55:22.455Z,86.41
2022-11-05T02:57:58.395Z,86.19
2022-11-05T03:00:59.243Z,86.66
2022-11-05T03:03:34.751Z,86.81
2022-11-05T03:06:15.715Z,86.45
2022-11-05T03:09:07.231Z,86.65
2022-11-05T03:11:41.993Z,86.34
2022-11-05T03:14:20.740Z,86.04
2022-11-05T03:16:52.814Z,86.10
2022-11-05T03:19:30.867Z,86.34
2022-11-05T03:22:02.785Z,86.38
2022-11-05T03:24:34.489Z,86.23
2022-11-05T03:27:10.878Z,86.01
2022-11-05T03:29:44.781Z,85.99
2022-11-05T03:32:14.814Z,85.75
2022-11-05T03:34:48.345Z,85.58
2022-11-05T03:37:20.230Z,85.75
2022-11-05T03:39:51.105Z,85.22
2022-11-05T03:42:24.229Z,84.74
2022-11-05T03:44:56.800Z,84.91
2022-11-05T03:47:29.998Z,84.62
2022-11-05T03:50:07.314Z,84.24
2022-11-05T03:52:40.225Z,83.89
2022-11-05T03:55:08.203Z,83.71
2022-11-05T03:57:40.747Z,83.90
2022-11-05T04:00:10.765Z,83.99
2022-11-05T04:02:38.987Z,83.95
2022-11-05T04:05:08.639Z,84.04
2022-11-05T04:07:35.911Z,83.96
2022-11-05T04:10:03.830Z,83.95
2022-11-05T04:12:31.976Z,84.37
2022-11-05T04:14:59.312Z,84.75
2022-11-05T04:17:27.738Z,84.63
2022-11-05T04:19:55.498Z,85.22
2022-11-05T04:22:25.390Z,86.01
2022-11-05T04:24:53.198Z,85.03
2022-11-05T04:27:20.548Z,85.15
2022-11-05T04:29:48.549Z,85.46
2022-11-05T04:32:15.931Z,85.29
2022-11-05T04:34:43.867Z,85.28
2022-11-05T04:37:11.157Z,85.54
2022-11-05T04:39:40.193Z,85.70
2022-11-05T04:42:07.469Z,85.62
2022-11-05T04:44:35.750Z,85.90
2022-11-05T04:47:02.986Z,85.91
2022-11-05T04:49:30.650Z,86.27
2022-11-05T04:51:57.860Z,86.54
2022-11-05T04:54:25.513Z,86.19
2022-11-05T04:56:54.255Z,85.47
2022-11-05T04:59:21.917Z,86.05
2022-11-05T05:01:51.692Z,86.45
2022-11-05T05:04:19.371Z,86.39
2022-11-05T05:06:46.745Z,86.65
2022-11-05T05:09:15.100Z,86.19
2022-11-05T05:11:42.505Z,86.29
2022-11-05T05:14:11.694Z,85.97
2022-11-05T05:16:38.953Z,85.79
2022-11-05T05:19:06.499Z,85.73
2022-11-05T05:21:34.013Z,85.43
2022-11-05T05:24:01.465Z,85.29
2022-11-05T05:26:29.471Z,84.98
2022-11-05T05:28:57.078Z,84.49
2022-11-05T05:31:26.182Z,84.65
2022-11-05T05:33:53.911Z,84.41
2022-11-05T05:36:22.438Z,84.53
2022-11-05T05:38:49.963Z,84.49
2022-11-05T05:41:17.808Z,84.46
2022-11-05T05:43:47.589Z,84.64
2022-11-05T05:46:17.584Z,84.74
2022-11-05T05:48:49.849Z,84.54
2022-11-05T05:51:18.834Z,84.62
2022-11-05T05:53:46.323Z,84.71
2022-11-05T05:56:14.386Z,85.22
2022-11-05T05:58:41.923Z,85.29
2022-11-05T06:01:18.573Z,85.45
2022-11-05T06:03:48.880Z,85.33
2022-11-05T06:06:18.278Z,85.62
2022-11-05T06:08:45.639Z,84.88
2022-11-05T06:11:13.559Z,84.97
2022-11-05T06:13:41.091Z,84.82
2022-11-05T06:16:09.632Z,84.71
2022-11-05T06:18:37.671Z,84.53
2022-11-05T06:21:08.737Z,84.63
2022-11-05T06:23:37.879Z,84.46
2022-11-05T06:26:07.501Z,84.58
2022-11-05T06:28:35.823Z,84.92
2022-11-05T06:31:04.565Z,84.64
2022-11-05T06:33:31.800Z,84.41
2022-11-05T06:36:00.634Z,84.37
2022-11-05T06:38:32.768Z,85.25
2022-11-05T06:41:05.746Z,84.91
2022-11-05T06:43:36.757Z,85.09
2022-11-05T06:46:05.802Z,85.00
2022-11-05T06:48:34.957Z,84.34
2022-11-05T06:51:03.366Z,84.68
2022-11-05T06:53:32.584Z,84.69
2022-11-05T06:56:02.676Z,85.14
2022-11-05T06:58:30.264Z,85.09
2022-11-05T07:01:01.184Z,85.02
2022-11-05T07:03:29.101Z,85.57
2022-11-05T07:06:15.054Z,85.78
2022-11-05T07:08:43.878Z,85.11
2022-11-05T07:11:11.587Z,85.07
2022-11-05T07:13:39.068Z,85.06
2022-11-05T07:16:07.557Z,84.97
2022-11-05T07:18:34.779Z,84.93
2022-11-05T07:21:03.062Z,83.97
2022-11-05T07:23:30.477Z,85.19
2022-11-05T07:25:59.975Z,85.16
2022-11-05T07:28:27.345Z,84.98
2022-11-05T07:30:55.360Z,84.99
2022-11-05T07:33:22.859Z,85.20
2022-11-05T07:35:50.760Z,85.25
2022-11-05T07:38:17.951Z,85.84
2022-11-05T07:40:45.641Z,85.15
2022-11-05T07:43:14.699Z,84.47
2022-11-05T07:45:42.602Z,84.49
2022-11-05T07:48:10.121Z,84.11
2022-11-05T07:50:38.257Z,84.37
2022-11-05T07:53:07.404Z,83.75
2022-11-05T07:55:35.428Z,83.77
2022-11-05T07:58:03.496Z,83.76
2022-11-05T08:00:33.528Z,83.82
2022-11-05T08:03:07.894Z,83.49
2022-11-05T08:05:38.211Z,83.69
2022-11-05T08:08:07.181Z,82.96
2022-11-05T08:10:35.491Z,82.78
2022-11-05T08:13:03.297Z,83.17
2022-11-05T08:15:33.420Z,82.97
2022-11-05T08:18:01.470Z,82.74
2022-11-05T08:20:32.329Z,81.43
2022-11-05T08:22:59.910Z,81.15
2022-11-05T08:25:28.221Z,80.78
2022-11-05T08:27:56.687Z,80.68
2022-11-05T08:30:25.600Z,81.32
2022-11-05T08:32:58.947Z,81.08
2022-11-05T08:35:28.145Z,79.94
2022-11-05T08:37:57.454Z,79.94
2022-11-05T08:40:25.401Z,80.38
2022-11-05T08:42:53.274Z,80.34
2022-11-05T08:45:21.347Z,80.15
2022-11-05T08:47:48.860Z,80.30
2022-11-05T08:50:18.178Z,80.19
2022-11-05T08:52:45.343Z,79.87
2022-11-05T08:55:13.146Z,79.09
2022-11-05T08:57:40.405Z,79.16
2022-11-05T09:00:09.950Z,79.03
2022-11-05T09:02:37.646Z,78.71
2022-11-05T09:05:05.911Z,79.07
2022-11-05T09:07:34.850Z,79.12
2022-11-05T09:10:02.527Z,78.57
2022-11-05T09:12:29.749Z,78.70
2022-11-05T09:14:57.794Z,78.04
2022-11-05T09:17:25.455Z,78.51
2022-11-05T09:19:53.356Z,78.56
2022-11-05T09:22:20.581Z,78.67
2022-11-05T09:24:49.906Z,77.35
2022-11-05T09:27:17.183Z,78.15
2022-11-05T09:29:44.822Z,77.97
2022-11-05T09:32:12.345Z,78.01
2022-11-05T09:34:40.094Z,79.12
2022-11-05T09:37:07.470Z,79.31
2022-11-05T09:39:35.395Z,79.29
2022-11-05T09:42:08.477Z,79.05
2022-11-05T09:44:42.671Z,79.26
2022-11-05T09:47:15.148Z,79.60
2022-11-05T09:49:46.522Z,79.26
2022-11-05T09:52:18.866Z,79.31
2022-11-05T09:54:46.754Z,78.63
2022-11-05T09:57:19.118Z,79.30
2022-11-05T09:59:50.763Z,78.50
2022-11-05T10:02:21.045Z,77.96
2022-11-05T10:04:51.425Z,78.85
2022-11-05T10:07:23.695Z,77.90
2022-11-05T10:09:56.446Z,78.14
2022-11-05T10:12:31.773Z,77.76
2022-11-05T10:15:10.579Z,77.51
2022-11-05T10:17:40.920Z,78.25
2022-11-05T10:20:16.292Z,77.50
2022-11-05T10:22:49.272Z,77.70
2022-11-05T10:25:20.112Z,77.98
2022-11-05T10:27:52.161Z,77.61
2022-11-05T10:30:20.822Z,76.95
2022-11-05T10:32:49.589Z,76.94
2022-11-05T10:35:19.892Z,76.40
2022-11-05T10:37:47.732Z,77.06
2022-11-05T10:40:22.948Z,76.10
2022-11-05T10:43:02.063Z,75.05
2022-11-05T10:45:37.255Z,75.97
2022-11-05T10:48:25.475Z,76.00
2022-11-05T10:50:53.859Z,75.57
2022-11-05T10:53:27.116Z,75.61
2022-11-05T10:55:54.733Z,75.43
2022-11-05T10:58:27.444Z,75.83
2022-11-05T11:01:08.396Z,76.09
2022-11-05T11:03:41.466Z,75.93
2022-11-05T11:06:20.311Z,74.91
2022-11-05T11:08:49.390Z,75.85
2022-11-05T11:11:27.907Z,75.25
2022-11-05T11:14:18.494Z,74.92
2022-11-05T11:16:48.491Z,74.78
2022-11-05T11:19:26.417Z,74.17
2022-11-05T11:22:19.204Z,74.56
2022-11-05T11:24:49.017Z,73.94
2022-11-05T11:27:21.294Z,73.53
2022-11-05T11:29:55.254Z,74.48
2022-11-05T11:32:27.585Z,73.85
2022-11-05T11:34:56.082Z,73.90
2022-11-05T11:37:28.238Z,73.75
2022-11-05T11:40:00.042Z,72.78
2022-11-05T11:42:29.838Z,71.67
2022-11-05T11:45:01.576Z,70.29
2022-11-05T11:47:29.405Z,69.23
2022-11-05T11:49:58.030Z,68.71
2022-11-05T11:52:29.780Z,68.62
2022-11-05T11:55:20.083Z,70.17
2022-11-05T11:57:49.890Z,70.56
2022-11-05T12:00:20.579Z,71.20
2022-11-05T12:03:05.410Z,70.47
2022-11-05T12:05:55.040Z,68.74
2022-11-05T12:08:36.407Z,67.70
2022-11-05T12:11:09.688Z,68.49
2022-11-05T12:13:58.468Z,67.36
2022-11-05T12:16:50.896Z,68.20
2022-11-05T12:19:31.946Z,68.28
2022-11-05T12:22:05.829Z,67.58
2022-11-05T12:25:18.105Z,67.07
2022-11-05T12:28:01.646Z,68.07
2022-11-05T12:30:37.459Z,66.39
2022-11-05T12:33:25.859Z,67.72
2022-11-05T12:36:06.813Z,66.08
2022-11-05T12:38:55.719Z,65.21
2022-11-05T12:41:28.039Z,63.22
2022-11-05T12:44:13.610Z,62.71
2022-11-05T12:46:49.437Z,61.86
2022-11-05T12:52:26.660Z,62.37
2022-11-05T12:55:01.616Z,62.69
2022-11-05T12:57:31.234Z,63.31
2022-11-05T13:00:05.904Z,63.05
2022-11-05T13:02:40.861Z,60.79
2022-11-05T13:05:16.663Z,60.64
2022-11-05T13:07:53.551Z,61.47
2022-11-05T13:10:28.331Z,60.05
2022-11-05T13:13:02.600Z,60.34
2022-11-05T13:15:34.073Z,59.36
2022-11-05T13:18:05.632Z,60.19
2022-11-05T13:20:37.713Z,60.37
2022-11-05T13:23:16.996Z,60.71
2022-11-05T13:25:51.244Z,61.10
2022-11-05T13:28:26.799Z,61.38
2022-11-05T13:31:00.361Z,60.35
2022-11-05T13:33:32.310Z,60.30
2022-11-05T13:36:05.367Z,61.03
2022-11-05T13:38:38.282Z,61.33
2022-11-05T13:41:21.661Z,60.10
2022-11-05T13:44:15.465Z,60.83
2022-11-05T13:47:02.816Z,60.28
2022-11-05T13:49:57.239Z,60.13
2022-11-05T13:52:43.401Z,59.97
2022-11-05T13:58:47.295Z,60.27
2022-11-05T14:01:37.612Z,61.04
2022-11-05T14:04:06.124Z,61.27
2022-11-05T14:06:36.518Z,62.16
2022-11-05T14:09:08.524Z,61.46
2022-11-05T14:11:38.336Z,61.83
2022-11-05T14:14:15.816Z,61.75
2022-11-05T14:16:50.975Z,60.90
2022-11-05T14:19:50.038Z,60.69
2022-11-05T14:22:40.876Z,60.86
2022-11-05T14:25:59.981Z,60.70
2022-11-05T14:28:52.121Z,60.81
2022-11-05T14:34:46.215Z,59.59
2022-11-05T14:37:23.719Z,59.71
2022-11-05T14:39:53.462Z,58.92
2022-11-05T14:42:24.728Z,60.07
2022-11-05T14:44:59.422Z,60.56
2022-11-05T14:47:32.343Z,61.13
2022-11-05T14:50:07.489Z,61.01
2022-11-05T14:52:35.002Z,60.97
2022-11-05T14:55:03.821Z,61.22
2022-11-05T14:58:08.762Z,61.27
2022-11-05T15:00:46.085Z,61.62
2022-11-05T15:03:58.103Z,61.67
2022-11-05T15:06:30.003Z,62.21
2022-11-05T15:09:13.308Z,61.49
2022-11-05T15:11:58.822Z,61.60
2022-11-05T15:14:29.038Z,62.56
2022-11-05T15:17:01.455Z,62.41
2022-11-05T15:19:31.740Z,62.43
2022-11-05T15:22:06.001Z,62.57
2022-11-05T15:24:35.169Z,63.00
2022-11-05T15:27:15.521Z,63.01
2022-11-05T15:29:43.006Z,63.21
2022-11-05T15:32:16.684Z,63.16
2022-11-05T15:34:51.792Z,63.53
2022-11-05T15:37:26.107Z,63.55
2022-11-05T15:39:54.805Z,63.87
2022-11-05T15:42:24.296Z,64.13
2022-11-05T15:44:52.723Z,63.97
2022-11-05T15:47:23.785Z,64.97
2022-11-05T15:49:54.281Z,65.09
2022-11-05T15:52:24.775Z,65.69
2022-11-05T15:55:10.607Z,65.81
2022-11-05T15:57:46.440Z,65.88
2022-11-05T16:00:19.300Z,65.71
2022-11-05T16:02:54.547Z,66.03
2022-11-05T16:05:22.551Z,66.00
2022-11-05T16:07:51.738Z,65.99
2022-11-05T16:10:23.084Z,65.70
2022-11-05T16:12:51.334Z,65.84
2022-11-05T16:15:22.150Z,65.87
2022-11-05T16:17:53.755Z,66.17
2022-11-05T16:20:25.159Z,66.13
2022-11-05T16:22:57.671Z,66.46
2022-11-05T16:25:37.932Z,66.96
2022-11-05T16:28:18.486Z,66.84
2022-11-05T16:30:53.496Z,66.42
2022-11-05T16:33:21.707Z,66.35
2022-11-05T16:35:49.959Z,66.66
2022-11-05T16:38:20.512Z,66.38
2022-11-05T16:40:47.805Z,66.06
2022-11-05T16:43:19.380Z,67.07
2022-11-05T16:45:46.641Z,67.75
2022-11-05T16:48:16.230Z,67.71
2022-11-05T16:50:44.823Z,68.06
2022-11-05T16:53:13.448Z,69.02
2022-11-05T16:55:43.904Z,69.78
2022-11-05T16:58:19.514Z,69.32
2022-11-05T17:00:47.689Z,68.53
2022-11-05T17:03:15.723Z,68.34
2022-11-05T17:05:43.026Z,68.56
2022-11-05T17:08:11.113Z,68.56
2022-11-05T17:10:39.085Z,68.90
2022-11-05T17:13:10.210Z,68.23
2022-11-05T17:15:37.663Z,68.77
2022-11-05T17:18:06.353Z,68.53
2022-11-05T17:20:40.721Z,68.72
2022-11-05T17:23:10.986Z,69.15
2022-11-05T17:25:39.317Z,68.88
2022-11-05T17:28:09.549Z,68.82
2022-11-05T17:30:40.355Z,69.12
2022-11-05T17:33:11.331Z,68.90
2022-11-05T17:35:39.609Z,68.95
2022-11-05T17:38:08.040Z,69.00
2022-11-05T17:40:36.489Z,69.05
2022-11-05T17:43:04.875Z,69.32
2022-11-05T17:45:34.324Z,69.99
2022-11-05T17:48:01.962Z,70.76
2022-11-05T17:50:29.393Z,71.18
2022-11-05T17:52:57.115Z,71.25
2022-11-05T17:55:24.651Z,71.31
2022-11-05T17:57:53.064Z,70.94
2022-11-05T18:00:22.845Z,71.76
2022-11-05T18:02:53.422Z,71.50
2022-11-05T18:05:22.220Z,71.96
2022-11-05T18:07:51.350Z,72.19
2022-11-05T18:10:18.948Z,71.91
2022-11-05T18:12:47.034Z,71.57
2022-11-05T18:15:15.211Z,71.45
2022-11-05T18:17:43.728Z,71.79
2022-11-05T18:20:18.656Z,72.08
2022-11-05T18:22:50.094Z,71.83
2022-11-05T18:25:18.081Z,72.04
2022-11-05T18:27:47.478Z,72.06
2022-11-05T18:30:14.838Z,72.28
2022-11-05T18:32:43.682Z,72.50
2022-11-05T18:35:13.356Z,72.83
2022-11-05T18:37:41.373Z,73.03
2022-11-05T18:40:09.892Z,72.56
2022-11-05T18:42:38.185Z,73.10
2022-11-05T18:45:06.622Z,72.80
2022-11-05T18:47:34.604Z,71.78
2022-11-05T18:50:02.808Z,71.73
2022-11-05T18:52:32.776Z,71.76
2022-11-05T18:55:00.098Z,71.73
2022-11-05T18:57:28.597Z,71.98
2022-11-05T18:59:56.130Z,72.29
2022-11-05T19:02:24.018Z,72.07
2022-11-05T19:05:22.120Z,71.75
2022-11-05T19:07:40.688Z,73.17
2022-11-05T19:10:09.528Z,74.14
2022-11-05T19:12:37.553Z,73.73
2022-11-05T19:15:05.542Z,73.69
2022-11-05T19:17:33.799Z,73.69
2022-11-05T19:20:01.505Z,72.29
2022-11-05T19:22:29.310Z,71.72
2022-11-05T19:24:58.188Z,72.78
2022-11-05T19:27:26.367Z,73.53
2022-11-05T19:29:53.854Z,74.09
2022-11-05T19:32:21.933Z,73.58
2022-11-05T19:34:49.648Z,73.10
2022-11-05T19:37:17.580Z,73.41
2022-11-05T19:39:44.818Z,73.82
2022-11-05T19:42:14.232Z,74.38
2022-11-05T19:44:41.801Z,75.08
2022-11-05T19:47:09.956Z,75.50
2022-11-05T19:49:37.251Z,75.15
2022-11-05T19:52:05.329Z,75.57
2022-11-05T19:54:32.868Z,75.36
2022-11-05T19:57:00.457Z,75.32
2022-11-05T19:59:29.294Z,74.68
2022-11-05T20:01:57.209Z,75.09
2022-11-05T20:04:25.138Z,75.25
2022-11-05T20:06:53.117Z,75.82
2022-11-05T20:09:22.258Z,75.66
2022-11-05T20:11:52.368Z,75.52
2022-11-05T20:14:19.850Z,77.72
2022-11-05T20:16:49.554Z,78.39
2022-11-05T20:19:19.061Z,78.90
2022-11-05T20:21:47.267Z,78.64
2022-11-05T20:24:22.337Z,77.99
2022-11-05T20:26:52.179Z,77.34
2022-11-05T20:29:19.536Z,76.94
2022-11-05T20:31:49.094Z,76.46
2022-11-05T20:34:16.449Z,76.46
2022-11-05T20:36:44.151Z,75.77
2022-11-05T20:39:11.484Z,75.80
2022-11-05T20:41:39.230Z,75.40
2022-11-05T20:44:06.660Z,75.59
2022-11-05T20:46:34.506Z,73.81
2022-11-05T20:49:03.208Z,74.87
2022-11-05T20:51:30.953Z,73.97
2022-11-05T20:53:59.873Z,71.91
2022-11-05T20:56:30.666Z,71.41
2022-11-05T20:58:59.677Z,72.13
2022-11-05T21:02:01.380Z,70.35
2022-11-05T21:04:30.231Z,71.64
2022-11-05T21:06:57.888Z,71.98
2022-11-05T21:09:25.434Z,72.28
2022-11-05T21:11:53.141Z,71.07
2022-11-05T21:14:20.585Z,70.12
2022-11-05T21:16:48.391Z,70.82
2022-11-05T21:19:15.757Z,71.50
2022-11-05T21:21:44.966Z,71.69
2022-11-05T21:24:12.274Z,73.29
2022-11-05T21:26:39.963Z,74.35
2022-11-05T21:29:07.262Z,73.87
2022-11-05T21:31:36.063Z,73.20
2022-11-05T21:34:04.046Z,73.44
2022-11-05T21:36:31.891Z,72.18
2022-11-05T21:39:00.519Z,72.39
2022-11-05T21:41:28.223Z,72.99
2022-11-05T21:43:55.383Z,73.06
2022-11-05T21:46:23.285Z,72.90
2022-11-05T21:48:50.584Z,70.10
2022-11-05T21:51:18.269Z,69.99
2022-11-05T21:53:45.486Z,70.99
2022-11-05T21:56:18.999Z,69.47
2022-11-05T21:58:46.853Z,69.36
2022-11-05T22:01:14.239Z,69.88
2022-11-05T22:03:41.992Z,69.83
2022-11-05T22:06:09.359Z,69.64
2022-11-05T22:08:37.086Z,69.49
2022-11-05T22:11:04.544Z,69.77
2022-11-05T22:13:33.607Z,71.36
2022-11-05T22:16:01.072Z,72.85
2022-11-05T22:18:28.821Z,74.01
2022-11-05T22:20:56.072Z,74.19
2022-11-05T22:23:23.783Z,72.50
2022-11-05T22:25:58.009Z,72.57
2022-11-05T22:28:25.622Z,72.79
2022-11-05T22:30:54.331Z,73.63
2022-11-05T22:33:21.990Z,73.80
2022-11-05T22:35:49.335Z,74.87
2022-11-05T22:38:17.203Z,74.97
2022-11-05T22:40:44.627Z,74.75
2022-11-05T22:43:12.225Z,75.41
2022-11-05T22:45:39.432Z,77.69
2022-11-05T22:48:08.950Z,78.32
2022-11-05T22:50:36.286Z,77.54
2022-11-05T22:53:03.997Z,76.97
2022-11-05T22:55:31.440Z,75.42
2022-11-05T22:57:59.327Z,74.10
2022-11-05T23:00:34.887Z,74.04
2022-11-05T23:03:03.659Z,75.37
2022-11-05T23:05:32.604Z,76.62
2022-11-05T23:08:00.292Z,75.74
2022-11-05T23:10:27.640Z,73.45
2022-11-05T23:12:55.237Z,73.60
2022-11-05T23:15:23.294Z,73.16
2022-11-05T23:17:50.591Z,70.33
2022-11-05T23:20:20.005Z,69.80
2022-11-05T23:22:49.142Z,71.18
2022-11-05T23:25:18.711Z,72.13
2022-11-05T23:27:49.593Z,71.66
2022-11-05T23:30:18.925Z,72.96
2022-11-05T23:32:47.059Z,78.06
2022-11-05T23:35:14.577Z,77.54
2022-11-05T23:37:42.428Z,75.21
2022-11-05T23:40:14.222Z,72.45
2022-11-05T23:42:42.239Z,72.43
2022-11-05T23:45:14.436Z,73.42
2022-11-05T23:47:43.157Z,75.20
2022-11-05T23:50:10.363Z,78.26
2022-11-05T23:52:38.377Z,78.17
2022-11-05T23:55:06.038Z,75.40
2022-11-05T23:57:35.263Z,78.49
